createdAt,value
2024-02-22T00:01:40.622Z,2.30
2024-02-22T00:04:10.305Z,2.60
2024-02-22T00:06:40.532Z,2.60
2024-02-22T00:09:10.388Z,2.08
2024-02-22T00:11:42.823Z,1.67
2024-02-22T00:14:14.582Z,4.43
2024-02-22T00:16:44.453Z,4.70
2024-02-22T00:19:14.179Z,3.63
2024-02-22T00:21:43.876Z,9.20
2024-02-22T00:24:13.574Z,2.03
2024-02-22T00:26:46.590Z,5.53
2024-02-22T00:29:16.271Z,7.43
2024-02-22T00:31:46.124Z,4.60
2024-02-22T00:34:15.988Z,6.03
2024-02-22T00:36:45.767Z,3.10
2024-02-22T00:39:15.988Z,1.30
2024-02-22T00:41:48.268Z,1.77
2024-02-22T00:44:18.050Z,1.25
2024-02-22T00:46:47.734Z,2.80
2024-02-22T00:49:17.555Z,1.40
2024-02-22T00:51:47.279Z,0.90
2024-02-22T00:54:16.944Z,1.63
2024-02-22T00:56:49.206Z,1.55
2024-02-22T00:59:21.028Z,2.72
2024-02-22T01:01:51.692Z,1.45
2024-02-22T01:04:21.477Z,1.15
2024-02-22T01:06:53.821Z,4.15
2024-02-22T01:09:23.511Z,1.38
2024-02-22T01:11:56.418Z,1.40
2024-02-22T01:14:26.178Z,1.48
2024-02-22T01:16:55.874Z,2.80
2024-02-22T01:19:26.759Z,2.33
2024-02-22T01:21:58.333Z,1.17
2024-02-22T01:24:28.592Z,2.13
2024-02-22T01:27:00.890Z,1.15
2024-02-22T01:29:30.748Z,1.02
2024-02-22T01:32:00.410Z,0.95
2024-02-22T01:34:30.257Z,0.88
2024-02-22T01:37:00.074Z,0.98
2024-02-22T01:39:30.053Z,2.75
2024-02-22T01:42:02.343Z,1.40
2024-02-22T01:44:32.377Z,1.27
2024-02-22T01:47:02.433Z,1.25
2024-02-22T01:49:32.491Z,1.40
2024-02-22T01:52:03.470Z,1.23
2024-02-22T01:54:33.235Z,1.15
2024-02-22T01:57:05.611Z,1.05
2024-02-22T01:59:35.852Z,1.67
2024-02-22T02:02:05.873Z,1.10
2024-02-22T02:04:35.988Z,1.63
2024-02-22T02:07:05.741Z,1.05
2024-02-22T02:09:35.701Z,1.00
2024-02-22T02:12:08.165Z,1.10
2024-02-22T02:14:37.852Z,1.20
2024-02-22T02:17:07.815Z,1.33
2024-02-22T02:19:37.853Z,1.13
2024-02-22T02:22:11.619Z,1.08
2024-02-22T02:24:43.572Z,1.38
2024-02-22T02:27:14.884Z,0.95
2024-02-22T02:29:46.860Z,1.52
2024-02-22T02:32:16.668Z,0.90
2024-02-22T02:34:46.346Z,1.52
2024-02-22T02:37:16.000Z,2.38
2024-02-22T02:39:45.946Z,1.30
2024-02-22T02:42:18.802Z,1.20
2024-02-22T02:44:49.385Z,1.27
2024-02-22T02:47:19.134Z,1.50
2024-02-22T02:49:49.369Z,1.50
2024-02-22T02:52:19.051Z,1.33
2024-02-22T02:54:48.686Z,1.23
2024-02-22T02:57:22.824Z,1.50
2024-02-22T02:59:52.573Z,1.35
2024-02-22T03:02:24.104Z,1.20
2024-02-22T03:04:53.891Z,1.25
2024-02-22T03:07:23.548Z,1.45
2024-02-22T03:09:53.211Z,1.10
2024-02-22T03:12:26.358Z,1.38
2024-02-22T03:14:56.211Z,1.20
2024-02-22T03:17:27.152Z,1.10
2024-02-22T03:19:58.293Z,1.20
2024-02-22T03:22:28.137Z,1.38
2024-02-22T03:24:57.776Z,1.33
2024-02-22T03:27:30.031Z,1.92
2024-02-22T03:29:59.731Z,1.20
2024-02-22T03:32:29.732Z,1.70
2024-02-22T03:34:59.862Z,1.35
2024-02-22T03:37:31.582Z,1.77
2024-02-22T03:40:02.554Z,1.70
2024-02-22T03:42:35.010Z,1.60
2024-02-22T03:45:05.757Z,1.42
2024-02-22T03:47:35.447Z,1.30
2024-02-22T03:50:05.687Z,1.33
2024-02-22T03:52:35.633Z,1.48
2024-02-22T03:55:05.321Z,1.27
2024-02-22T03:57:37.654Z,1.63
2024-02-22T04:00:08.463Z,1.42
2024-02-22T04:02:48.265Z,1.50
2024-02-22T04:05:18.600Z,1.15
2024-02-22T04:07:48.319Z,1.63
2024-02-22T04:10:18.066Z,1.15
2024-02-22T04:12:50.360Z,1.65
2024-02-22T04:15:20.044Z,1.13
2024-02-22T04:17:49.778Z,1.50
2024-02-22T04:20:19.594Z,1.30
2024-02-22T04:22:50.508Z,1.63
2024-02-22T04:25:20.558Z,1.45
2024-02-22T04:27:52.886Z,1.70
2024-02-22T04:30:22.613Z,1.50
2024-02-22T04:32:52.355Z,1.55
2024-02-22T04:35:22.417Z,1.33
2024-02-22T04:37:52.328Z,1.52
2024-02-22T04:40:22.356Z,1.00
2024-02-22T04:42:54.997Z,1.60
2024-02-22T04:45:24.934Z,1.75
2024-02-22T04:47:55.035Z,1.50
2024-02-22T04:50:24.725Z,1.63
2024-02-22T04:52:54.478Z,1.75
2024-02-22T04:55:24.207Z,1.38
2024-02-22T04:57:56.608Z,1.27
2024-02-22T05:00:26.349Z,1.40
2024-02-22T05:02:56.048Z,1.67
2024-02-22T05:05:25.952Z,1.52
2024-02-22T05:07:55.771Z,1.40
2024-02-22T05:10:25.479Z,1.42
2024-02-22T05:12:57.685Z,1.58
2024-02-22T05:15:27.526Z,1.20
2024-02-22T05:17:59.975Z,1.30
2024-02-22T05:20:31.940Z,1.83
2024-02-22T05:23:01.581Z,1.40
2024-02-22T05:25:31.320Z,1.75
2024-02-22T05:28:04.332Z,1.40
2024-02-22T05:30:33.969Z,1.95
2024-02-22T05:33:03.764Z,1.65
2024-02-22T05:35:33.482Z,1.48
2024-02-22T05:38:03.216Z,1.98
2024-02-22T05:40:33.163Z,1.80
2024-02-22T05:43:05.454Z,1.88
2024-02-22T05:45:42.975Z,1.70
2024-02-22T05:48:13.263Z,1.80
2024-02-22T05:50:43.715Z,1.70
2024-02-22T05:53:14.316Z,1.60
2024-02-22T05:55:44.187Z,1.58
2024-02-22T05:58:17.556Z,1.50
2024-02-22T06:00:47.479Z,1.27
2024-02-22T06:03:17.286Z,1.70
2024-02-22T06:05:47.171Z,1.58
2024-02-22T06:08:14.328Z,1.55
2024-02-22T06:10:44.224Z,1.67
2024-02-22T06:13:17.773Z,1.42
2024-02-22T06:15:48.595Z,1.80
2024-02-22T06:18:18.354Z,1.60
2024-02-22T06:20:48.308Z,1.80
2024-02-22T06:23:18.530Z,1.30
2024-02-22T06:25:48.303Z,1.30
2024-02-22T06:28:20.946Z,2.00
2024-02-22T06:30:50.826Z,1.85
2024-02-22T06:33:20.562Z,1.65
2024-02-22T06:35:50.514Z,1.90
2024-02-22T06:38:20.382Z,1.48
2024-02-22T06:40:55.044Z,1.48
2024-02-22T06:43:27.465Z,1.48
2024-02-22T06:45:57.311Z,2.20
2024-02-22T06:48:27.438Z,1.65
2024-02-22T06:50:58.084Z,1.83
2024-02-22T06:53:27.937Z,1.77
2024-02-22T06:55:57.661Z,1.80
2024-02-22T06:58:30.056Z,2.35
2024-02-22T07:00:59.902Z,1.95
2024-02-22T07:03:29.580Z,2.63
2024-02-22T07:05:59.395Z,2.10
2024-02-22T07:08:29.556Z,2.35
2024-02-22T07:10:59.340Z,2.35
2024-02-22T07:13:31.771Z,2.40
2024-02-22T07:16:01.625Z,2.50
2024-02-22T07:18:31.426Z,2.50
2024-02-22T07:21:01.788Z,2.53
2024-02-22T07:23:31.637Z,2.40
2024-02-22T07:26:01.968Z,2.78
2024-02-22T07:28:34.978Z,2.60
2024-02-22T07:31:04.693Z,2.72
2024-02-22T07:33:34.523Z,2.92
2024-02-22T07:36:04.428Z,3.30
2024-02-22T07:38:34.657Z,2.97
2024-02-22T07:41:07.031Z,3.20
2024-02-22T07:43:39.465Z,2.92
2024-02-22T07:46:09.172Z,2.55
2024-02-22T07:48:38.940Z,2.53
2024-02-22T07:51:08.899Z,2.75
2024-02-22T07:53:38.663Z,2.70
2024-02-22T07:56:09.271Z,2.63
2024-02-22T07:58:51.549Z,2.75
2024-02-22T08:01:21.815Z,3.10
2024-02-22T08:03:52.392Z,3.10
2024-02-22T08:06:22.364Z,3.00
2024-02-22T08:08:52.257Z,2.90
2024-02-22T08:11:22.306Z,3.22
2024-02-22T08:13:54.749Z,3.10
2024-02-22T08:16:24.745Z,3.03
2024-02-22T08:18:54.472Z,3.65
2024-02-22T08:21:24.333Z,3.70
2024-02-22T08:23:56.815Z,2.97
2024-02-22T08:26:26.964Z,3.15
2024-02-22T08:28:59.305Z,3.08
2024-02-22T08:31:29.050Z,3.30
2024-02-22T08:33:58.832Z,3.10
2024-02-22T08:36:28.602Z,2.78
2024-02-22T08:38:58.930Z,2.88
2024-02-22T08:41:28.676Z,3.20
2024-02-22T08:44:01.295Z,3.35
2024-02-22T08:46:33.187Z,2.67
2024-02-22T08:49:03.800Z,2.55
2024-02-22T08:51:33.546Z,2.85
2024-02-22T08:54:03.548Z,3.15
2024-02-22T08:56:33.858Z,2.92
2024-02-22T08:59:06.577Z,3.25
2024-02-22T09:01:36.581Z,2.55
2024-02-22T09:04:07.305Z,2.92
2024-02-22T09:06:37.988Z,2.70
2024-02-22T09:09:08.760Z,2.63
2024-02-22T09:11:38.842Z,2.80
2024-02-22T09:14:11.351Z,2.80
2024-02-22T09:16:42.002Z,2.50
2024-02-22T09:19:14.950Z,2.72
2024-02-22T09:21:44.768Z,2.38
2024-02-22T09:24:14.436Z,2.47
2024-02-22T09:26:44.308Z,2.25
2024-02-22T09:29:16.895Z,2.42
2024-02-22T09:31:46.960Z,2.20
2024-02-22T09:34:17.469Z,2.55
2024-02-22T09:36:47.209Z,2.00
2024-02-22T09:39:16.941Z,2.72
2024-02-22T09:41:47.100Z,2.42
2024-02-22T09:44:20.523Z,2.20
2024-02-22T09:46:55.278Z,2.30
2024-02-22T09:49:25.888Z,1.88
2024-02-22T09:51:56.321Z,2.03
2024-02-22T09:54:27.126Z,2.28
2024-02-22T09:57:00.544Z,1.63
2024-02-22T09:59:32.908Z,2.05
2024-02-22T10:02:07.480Z,2.00
2024-02-22T10:04:37.304Z,2.03
2024-02-22T10:07:08.475Z,1.90
2024-02-22T10:09:46.230Z,1.95
2024-02-22T10:12:27.192Z,1.80
2024-02-22T10:15:00.566Z,2.08
2024-02-22T10:17:31.699Z,2.33
2024-02-22T10:20:02.129Z,1.80
2024-02-22T10:22:32.944Z,1.75
2024-02-22T10:25:10.415Z,1.67
2024-02-22T10:27:42.764Z,1.67
2024-02-22T10:30:16.046Z,1.85
2024-02-22T10:32:46.575Z,1.48
2024-02-22T10:35:16.735Z,1.55
2024-02-22T10:37:47.040Z,1.50
2024-02-22T10:40:16.995Z,1.60
2024-02-22T10:42:46.928Z,1.38
2024-02-22T10:45:19.318Z,1.95
2024-02-22T10:47:49.334Z,2.20
2024-02-22T10:50:23.537Z,1.63
2024-02-22T10:52:56.133Z,1.30
2024-02-22T10:55:28.360Z,1.00
2024-02-22T10:57:59.664Z,1.52
2024-02-22T11:00:33.679Z,1.35
2024-02-22T11:03:03.898Z,1.77
2024-02-22T11:05:41.237Z,1.17
2024-02-22T11:08:11.103Z,1.13
2024-02-22T11:10:44.950Z,1.10
2024-02-22T11:13:16.056Z,1.90
2024-02-22T11:15:48.401Z,1.45
2024-02-22T11:18:26.413Z,1.42
2024-02-22T11:20:56.735Z,1.20
2024-02-22T11:23:27.099Z,0.98
2024-02-22T11:25:56.947Z,1.10
2024-02-22T11:28:28.394Z,1.02
2024-02-22T11:31:11.610Z,1.15
2024-02-22T11:33:42.691Z,1.40
2024-02-22T11:36:17.846Z,1.13
2024-02-22T11:38:49.003Z,1.33
2024-02-22T11:41:19.818Z,1.10
2024-02-22T11:43:49.834Z,0.90
2024-02-22T11:46:22.195Z,0.93
2024-02-22T11:48:52.223Z,1.23
2024-02-22T11:51:21.960Z,1.02
2024-02-22T11:53:56.047Z,0.88
2024-02-22T11:56:25.894Z,0.85
2024-02-22T11:58:57.112Z,1.05
2024-02-22T12:01:29.945Z,0.80
2024-02-22T12:04:00.325Z,0.90
2024-02-22T12:06:30.394Z,0.80
2024-02-22T12:09:00.568Z,0.85
2024-02-22T12:11:30.420Z,0.90
2024-02-22T12:14:01.386Z,1.00
2024-02-22T12:16:34.034Z,2.97
2024-02-22T12:19:03.907Z,2.72
2024-02-22T12:21:33.697Z,1.95
2024-02-22T12:24:04.077Z,1.23
2024-02-22T12:26:33.960Z,1.08
2024-02-22T12:29:03.801Z,0.90
2024-02-22T12:31:36.368Z,1.33
2024-02-22T12:34:06.295Z,0.95
2024-02-22T12:36:35.995Z,0.88
2024-02-22T12:39:06.818Z,1.17
2024-02-22T12:41:36.570Z,1.05
2024-02-22T12:44:06.750Z,0.82
2024-02-22T12:46:39.828Z,1.40
2024-02-22T12:49:09.753Z,1.10
2024-02-22T12:51:39.498Z,0.93
2024-02-22T12:54:09.270Z,0.85
2024-02-22T12:56:38.985Z,0.70
2024-02-22T12:59:09.780Z,0.82
2024-02-22T13:01:42.538Z,0.88
2024-02-22T13:04:12.309Z,0.77
2024-02-22T13:06:42.090Z,1.60
2024-02-22T13:09:12.865Z,1.08
2024-02-22T13:11:42.800Z,1.75
2024-02-22T13:14:12.584Z,0.85
2024-02-22T13:16:45.072Z,1.05
2024-02-22T13:19:15.061Z,0.57
2024-02-22T13:21:44.947Z,1.05
2024-02-22T13:24:16.392Z,0.93
2024-02-22T13:26:46.172Z,0.93
2024-02-22T13:29:19.113Z,0.70
2024-02-22T13:31:51.738Z,0.65
2024-02-22T13:34:21.534Z,0.60
2024-02-22T13:36:51.248Z,1.08
2024-02-22T13:39:21.020Z,0.82
2024-02-22T13:41:50.763Z,0.82
2024-02-22T13:44:26.594Z,1.10
2024-02-22T13:47:02.799Z,0.82
2024-02-22T13:49:32.616Z,1.20
2024-02-22T13:52:07.320Z,1.90
2024-02-22T13:54:45.262Z,0.93
2024-02-22T13:57:15.496Z,0.70
2024-02-22T13:59:45.238Z,1.05
2024-02-22T14:02:17.614Z,1.10
2024-02-22T14:04:47.712Z,1.63
2024-02-22T14:07:17.536Z,1.95
2024-02-22T14:09:48.748Z,1.65
2024-02-22T14:12:18.471Z,1.45
2024-02-22T14:14:48.262Z,2.20
2024-02-22T14:17:26.051Z,2.88
2024-02-22T14:19:56.209Z,1.30
2024-02-22T14:22:26.115Z,1.38
2024-02-22T14:24:55.831Z,1.17
2024-02-22T14:27:29.679Z,1.05
2024-02-22T14:29:59.407Z,0.93
2024-02-22T14:32:32.397Z,0.80
2024-02-22T14:35:02.604Z,0.80
2024-02-22T14:37:32.361Z,1.10
2024-02-22T14:40:02.069Z,0.68
2024-02-22T14:42:31.745Z,0.60
2024-02-22T14:45:01.522Z,1.00
2024-02-22T14:47:34.561Z,0.70
2024-02-22T14:50:05.637Z,1.00
2024-02-22T14:52:35.464Z,1.08
2024-02-22T14:55:05.220Z,0.60
2024-02-22T14:57:35.353Z,1.38
2024-02-22T15:00:09.180Z,1.67
2024-02-22T15:02:42.416Z,1.13
2024-02-22T15:05:12.808Z,0.75
2024-02-22T15:07:42.755Z,1.05
2024-02-22T15:10:13.106Z,0.93
2024-02-22T15:12:43.638Z,1.20
2024-02-22T15:15:17.401Z,1.02
2024-02-22T15:17:50.302Z,0.80
2024-02-22T15:20:20.180Z,0.90
2024-02-22T15:22:50.009Z,0.80
2024-02-22T15:25:20.574Z,0.68
2024-02-22T15:27:50.865Z,0.70
2024-02-22T15:30:20.546Z,0.70
2024-02-22T15:32:58.077Z,0.60
2024-02-22T15:35:29.345Z,0.70
2024-02-22T15:38:00.536Z,0.80
2024-02-22T15:40:30.268Z,0.73
2024-02-22T15:43:01.000Z,0.93
2024-02-22T15:45:31.653Z,0.98
2024-02-22T15:48:04.059Z,0.88
2024-02-22T15:50:33.815Z,0.75
2024-02-22T15:53:06.427Z,1.00
2024-02-22T15:55:37.083Z,1.00
2024-02-22T15:58:07.857Z,0.60
2024-02-22T16:00:37.485Z,1.00
2024-02-22T16:03:09.948Z,0.80
2024-02-22T16:05:39.733Z,0.70
2024-02-22T16:08:09.884Z,0.57
2024-02-22T16:10:39.668Z,0.50
2024-02-22T16:13:11.985Z,0.57
2024-02-22T16:15:44.657Z,1.02
2024-02-22T16:18:18.372Z,1.10
2024-02-22T16:20:48.368Z,0.70
2024-02-22T16:23:24.382Z,1.10
2024-02-22T16:25:59.669Z,0.90
2024-02-22T16:28:30.412Z,0.57
2024-02-22T16:31:01.136Z,1.02
2024-02-22T16:33:34.216Z,0.57
2024-02-22T16:36:05.235Z,1.08
2024-02-22T16:38:39.806Z,0.90
2024-02-22T16:41:26.821Z,1.20
2024-02-22T16:43:56.811Z,0.93
2024-02-22T16:46:26.532Z,0.80
2024-02-22T16:48:58.907Z,0.98
2024-02-22T16:51:28.629Z,0.93
2024-02-22T16:53:58.303Z,1.20
2024-02-22T16:56:28.034Z,0.85
2024-02-22T16:59:02.397Z,0.70
2024-02-22T17:01:32.599Z,0.93
2024-02-22T17:04:04.927Z,1.08
2024-02-22T17:06:35.092Z,0.90
2024-02-22T17:09:05.840Z,1.23
2024-02-22T17:11:36.500Z,1.30
2024-02-22T17:14:06.463Z,0.98
2024-02-22T17:16:36.605Z,1.27
2024-02-22T17:19:08.995Z,1.40
2024-02-22T17:21:38.739Z,1.13
2024-02-22T17:24:08.870Z,1.65
2024-02-22T17:26:38.550Z,0.80
2024-02-22T17:29:08.220Z,1.08
2024-02-22T17:31:38.005Z,1.80
2024-02-22T17:34:10.489Z,1.20
2024-02-22T17:36:42.706Z,1.20
2024-02-22T17:39:12.422Z,1.30
2024-02-22T17:41:42.170Z,1.17
2024-02-22T17:44:12.135Z,1.58
2024-02-22T17:46:41.991Z,0.80
2024-02-22T17:49:14.446Z,1.23
2024-02-22T17:51:50.512Z,1.35
2024-02-22T17:54:23.693Z,1.23
2024-02-22T17:56:53.551Z,1.20
2024-02-22T17:59:20.676Z,1.23
2024-02-22T18:01:51.233Z,1.70
2024-02-22T18:04:24.828Z,1.45
2024-02-22T18:06:55.753Z,1.55
2024-02-22T18:09:27.006Z,1.30
2024-02-22T18:11:56.778Z,1.55
2024-02-22T18:14:32.413Z,1.52
2024-02-22T18:17:04.305Z,1.50
2024-02-22T18:19:36.681Z,1.45
2024-02-22T18:22:06.658Z,1.38
2024-02-22T18:24:36.310Z,1.35
2024-02-22T18:27:06.057Z,1.50
2024-02-22T18:29:35.754Z,1.55
2024-02-22T18:32:05.783Z,1.48
2024-02-22T18:34:38.285Z,1.23
2024-02-22T18:37:09.203Z,1.00
2024-02-22T18:39:38.918Z,1.92
2024-02-22T18:42:15.305Z,1.35
2024-02-22T18:44:46.327Z,1.00
2024-02-22T18:47:16.018Z,1.02
2024-02-22T18:49:49.032Z,0.90
2024-02-22T18:52:19.459Z,1.20
2024-02-22T18:54:49.241Z,1.10
2024-02-22T18:57:18.896Z,1.20
2024-02-22T18:59:51.698Z,1.77
2024-02-22T19:02:21.477Z,1.10
2024-02-22T19:04:57.616Z,1.20
2024-02-22T19:07:27.514Z,1.80
2024-02-22T19:09:57.148Z,1.38
2024-02-22T19:12:27.144Z,1.08
2024-02-22T19:14:57.083Z,1.00
2024-02-22T19:17:26.773Z,1.30
2024-02-22T19:19:59.171Z,1.30
2024-02-22T19:22:30.223Z,1.05
2024-02-22T19:25:00.167Z,1.13
2024-02-22T19:27:32.562Z,1.40
2024-02-22T19:30:02.249Z,1.20
2024-02-22T19:32:32.015Z,0.95
2024-02-22T19:35:04.604Z,1.00
2024-02-22T19:37:34.344Z,0.90
2024-02-22T19:40:08.419Z,1.00
2024-02-22T19:42:41.165Z,1.08
2024-02-22T19:45:12.226Z,0.77
2024-02-22T19:47:41.933Z,1.17
2024-02-22T19:50:14.403Z,1.10
2024-02-22T19:52:45.326Z,1.00
2024-02-22T19:55:15.093Z,1.20
2024-02-22T19:57:44.765Z,1.40
2024-02-22T20:00:15.267Z,1.10
2024-02-22T20:02:46.450Z,1.05
2024-02-22T20:05:18.868Z,1.20
2024-02-22T20:07:48.744Z,1.23
2024-02-22T20:10:19.792Z,1.00
2024-02-22T20:12:50.122Z,1.55
2024-02-22T20:15:20.058Z,0.93
2024-02-22T20:17:50.131Z,1.40
2024-02-22T20:20:23.278Z,1.50
2024-02-22T20:22:54.674Z,1.15
2024-02-22T20:25:27.770Z,0.98
2024-02-22T20:27:58.796Z,0.98
2024-02-22T20:30:28.683Z,1.25
2024-02-22T20:32:58.473Z,2.33
2024-02-22T20:35:30.923Z,1.10
2024-02-22T20:38:00.821Z,1.10
2024-02-22T20:40:30.560Z,1.02
2024-02-22T20:43:00.378Z,0.90
2024-02-22T20:45:30.086Z,1.40
2024-02-22T20:48:00.502Z,0.75
2024-02-22T20:50:32.882Z,1.08
2024-02-22T20:53:02.695Z,1.08
2024-02-22T20:55:32.708Z,0.90
2024-02-22T20:58:02.476Z,1.02
2024-02-22T21:00:32.179Z,1.15
2024-02-22T21:03:04.069Z,1.63
2024-02-22T21:05:38.496Z,2.08
2024-02-22T21:08:08.989Z,1.75
2024-02-22T21:10:38.924Z,3.70
2024-02-22T21:13:11.782Z,6.30
2024-02-22T21:15:41.499Z,1.05
2024-02-22T21:18:11.660Z,0.80
2024-02-22T21:20:44.089Z,0.80
2024-02-22T21:23:13.927Z,1.10
2024-02-22T21:25:46.619Z,1.05
2024-02-22T21:28:18.821Z,0.95
2024-02-22T21:30:50.725Z,1.45
2024-02-22T21:33:22.335Z,1.00
2024-02-22T21:35:55.060Z,0.80
2024-02-22T21:38:25.008Z,1.10
2024-02-22T21:40:54.714Z,0.95
2024-02-22T21:43:24.980Z,1.23
2024-02-22T21:45:54.674Z,0.93
2024-02-22T21:48:24.394Z,2.53
2024-02-22T21:50:56.768Z,0.82
2024-02-22T21:53:26.626Z,1.33
2024-02-22T21:55:56.301Z,1.40
2024-02-22T21:58:27.872Z,1.00
2024-02-22T22:00:57.658Z,0.65
2024-02-22T22:03:27.444Z,0.95
2024-02-22T22:05:59.830Z,0.77
2024-02-22T22:08:29.753Z,0.93
2024-02-22T22:10:59.979Z,0.98
2024-02-22T22:13:29.720Z,1.08
2024-02-22T22:15:59.326Z,1.08
2024-02-22T22:18:28.982Z,0.65
2024-02-22T22:21:01.327Z,0.98
2024-02-22T22:23:31.116Z,0.90
2024-02-22T22:26:01.904Z,0.60
2024-02-22T22:28:31.618Z,0.80
2024-02-22T22:31:01.699Z,0.60
2024-02-22T22:33:31.445Z,0.77
2024-02-22T22:36:03.930Z,0.70
2024-02-22T22:38:34.084Z,0.50
2024-02-22T22:41:04.403Z,0.60
2024-02-22T22:43:34.028Z,0.40
2024-02-22T22:46:03.666Z,0.65
2024-02-22T22:48:33.797Z,0.60
2024-02-22T22:51:06.145Z,0.82
2024-02-22T22:53:35.900Z,0.30
2024-02-22T22:56:05.657Z,0.47
2024-02-22T22:58:35.433Z,0.50
2024-02-22T23:01:05.196Z,0.60
2024-02-22T23:03:35.025Z,0.65
2024-02-22T23:06:08.984Z,0.70
2024-02-22T23:08:38.687Z,0.40
2024-02-22T23:11:08.387Z,0.50
2024-02-22T23:13:38.133Z,0.40
2024-02-22T23:16:10.119Z,0.55
2024-02-22T23:18:40.119Z,0.55
2024-02-22T23:21:13.566Z,0.70
2024-02-22T23:23:43.659Z,0.40
2024-02-22T23:26:13.358Z,0.43
2024-02-22T23:28:43.107Z,0.57
2024-02-22T23:31:12.748Z,0.60
2024-02-22T23:33:42.417Z,0.60
2024-02-22T23:36:14.769Z,0.80
2024-02-22T23:38:44.612Z,0.50
2024-02-22T23:41:22.456Z,0.55
2024-02-22T23:43:59.896Z,0.50
2024-02-22T23:46:30.003Z,0.70
2024-02-22T23:48:59.897Z,0.40
2024-02-22T23:51:32.222Z,0.50
2024-02-22T23:54:06.054Z,0.30
2024-02-22T23:56:36.355Z,0.50
2024-02-22T23:59:07.130Z,0.50
